KLVL

Details ICAO KLVL
Name LAWRENCEVILLE BRUNSWICK MUNI
Region United States
Timezone America/New_York (UTC-4.0)
Plans Departing 1
Arriving 1
Stats Elevation 329 ft / 100 m (AMSL)
Location 36.772423° -77.794456°
Runways 2
Magnetic Variation 9.969° W
Sunrise 2018-05-23 09:59:27 UTC / 2018-05-23 05:59:27 Local
Sunset 2018-05-24 00:19:18 UTC / 2018-05-23 20:19:18 Local
Advertisement - Login to hide

Runways

ID Width Length Bearing (true) Bearing (mag) Surface Threshold Offset Overrun Length
06 70 ft / 21 m 1,889 ft / 576 m 56.74° 66.71° Dirt 0 ft / 0 m 0 ft / 0 m
18 50 ft / 15 m 3,027 ft / 923 m 172.52° 182.49° Asphalt 0 ft / 0 m 0 ft / 0 m
24 70 ft / 21 m 1,889 ft / 576 m 236.75° 246.72° Dirt 0 ft / 0 m 0 ft / 0 m
36 50 ft / 15 m 3,027 ft / 923 m 352.52° 2.49° Asphalt 0 ft / 0 m 0 ft / 0 m

Map

Weather


0- 5 10 15 20 25 30 35+ Temperature / ° C

Clouds and Precipitation
Forecast for 2018-05-23 12:00 UTC. Updated 4 hours ago

Ground ~20,000 ft ~40,000 ft Winds

METAR

KLVL 231535Z AUTO 26004KT 10SM SCT027 BKN035 28/21 A3002 RMK AO1 T02770212

TAF

Not found

Frequencies

Unicom 122.80 MHz CTAF/UNICOM
Warning: Do not use this data for real-world aviation or navigation. No guarantee of current accuracy is given.